CYRJCYQB

Guest
Details From CYRJ - ROBERVAL
To CYQB - Quebec Jean Lesage Intl
Flight Number -
Tags generated
Created
Modified
Stats Distance 113 nm / 210 km
Max Altitude 1,400 ft / 427 m
Waypoints 3
Social Downloads 0
Likes 0
Share VATSIM

Download

Looking for another format? Having issues loading an existing format? Contact us
Advertisement - Login to hide

Notes

Basic altitude profile: - Ascent Rate: 2500ft/min - Ascent Speed: 250kts - Cruise Altitude: 35000ft - Cruise Speed: 420kts - Descent Rate: 1500ft/min - Descent Speed: 250kts Options: - Use NATs: yes - Use PACOTS: yes - Use low airways: yes - Use high airways: yes

Route

CYRJ BV CYQB

ID Type Via Altitude Latitude Longitude Leg Dist Tot Dist Heading (true) Name
O CYRJ APT - 0 ft / 0 m 48.52000˚ -72.26556˚ - 0 nm - ROBERVAL
BV NDB - 1,400 ft / 427 m 46.87114˚ -71.28142˚ 106 nm 106 nm 158° / 158° CHAMPLAIN NDB
O CYQB APT - 0 ft / 0 m 46.78946˚ -71.39276˚ 6 nm 113 nm 223° / 223° Quebec Jean Lesage Intl

Altitude Profile

Advertisement - Login to hide

CYRJ

Details ICAO CYRJ (YRJ)
Name ROBERVAL
Region Canada
Timezone America/Montreal (UTC-5.0)
Stats Elevation 586 ft / 179 m (AMSL)
Location 48.520001° -72.265556°
Runways 1
Magnetic Variation 16.085° W

METAR

CYRJ 141006Z 28007KT 25SM -SN OVC091 M17/M22 A2922 RMK AC8 SLP912

Decode

TAF

TAF AMD CYRJ 140209Z 1402/1403 29015G25KT P6SM -SN OVC060 TEMPO 1402/1403 21/2SM -SN BLSN OVC025 RMK NXT FCST WILL BE ISSUED AT 141245Z

Decode

Departure Runways

ID Width Length Bearing (true) Bearing (mag) Surface Threshold Offset Overrun Length
16 150 ft / 46 m 5,096 ft / 1,553 m 142.69° 158.77° Asphalt 0 ft / 0 m 0 ft / 0 m
34 150 ft / 46 m 5,096 ft / 1,553 m 322.70° 338.78° Asphalt 0 ft / 0 m 0 ft / 0 m

CYQB

Details ICAO CYQB (YQB)
Name Quebec Jean Lesage Intl
Region Canada
Timezone America/Montreal (UTC-5.0)
Stats Elevation 244 ft / 74 m (AMSL)
Location 46.789458° -71.392764°
Runways 2
Magnetic Variation 15.837° W

METAR

CYQB 141000Z 25018G26KT 15SM DRSN OVC032 M17/M21 A2940 RMK SC8 SLP964

Decode

TAF

TAF TAF AMD CYQB 140802Z 1408/1506 25015G25KT P6SM BKN030 TEMPO 1408/1416 6SM -SN BKN020 FM141600 25020G30KT 5SM -SN BKN030 BECMG 1421/1423 25015G25KT FM150300 25015G25KT P6SM SCT030 RMK NXT FCST BY 141200Z

Decode

Destination Runways

ID Width Length Bearing (true) Bearing (mag) Surface Threshold Offset Overrun Length
06 150 ft / 46 m 9,020 ft / 2,749 m 44.00° 59.84° Asphalt 0 ft / 0 m 0 ft / 0 m
12 150 ft / 46 m 5,678 ft / 1,731 m 97.58° 113.42° Asphalt 0 ft / 0 m 0 ft / 0 m
24 150 ft / 46 m 9,020 ft / 2,749 m 224.02° 239.86° Asphalt 0 ft / 0 m 0 ft / 0 m
30 150 ft / 46 m 5,678 ft / 1,731 m 277.60° 293.44° Asphalt 0 ft / 0 m 0 ft / 0 m

Approach Navaids

Runway Type Ident Frequency Range Bearing (true) Bearing (mag) Slope Elevation
06 Localiser IQB 109.50 MHz 18 nm / 33 km 44.33° 60.17° - 197 ft / 60 m (AMSL)
06 Glidescope IQB 109.50 MHz 18 nm / 33 km 42.00° 57.84° 3.00° 233 ft / 71 m (AMSL)